createdAt,value
2023-02-15T00:00:41.518Z,0.71
2023-02-15T00:05:43.183Z,0.69
2023-02-15T00:10:44.827Z,0.67
2023-02-15T00:15:46.745Z,0.66
2023-02-15T00:20:48.346Z,0.59
2023-02-15T00:25:50.981Z,0.56
2023-02-15T00:30:52.633Z,0.54
2023-02-15T00:35:59.599Z,0.54
2023-02-15T00:41:03.020Z,0.53
2023-02-15T00:46:05.986Z,0.54
2023-02-15T00:51:07.741Z,0.56
2023-02-15T00:56:09.368Z,0.54
2023-02-15T01:01:13.805Z,0.50
2023-02-15T01:06:16.761Z,0.47
2023-02-15T01:11:24.317Z,0.46
2023-02-15T01:16:28.749Z,0.39
2023-02-15T01:21:30.597Z,0.36
2023-02-15T01:26:32.257Z,0.33
2023-02-15T01:31:34.557Z,0.31
2023-02-15T01:36:36.346Z,0.31
2023-02-15T01:41:38.018Z,0.36
2023-02-15T01:46:44.065Z,0.31
2023-02-15T01:51:47.285Z,0.29
2023-02-15T01:56:49.095Z,0.28
2023-02-15T02:01:53.480Z,0.25
2023-02-15T02:06:55.622Z,0.31
2023-02-15T02:11:57.306Z,0.26
2023-02-15T02:17:11.526Z,0.29
2023-02-15T02:22:13.088Z,0.26
2023-02-15T02:27:24.605Z,0.28
2023-02-15T02:32:29.072Z,0.28
2023-02-15T02:37:52.696Z,0.29
2023-02-15T02:43:02.869Z,0.28
2023-02-15T02:48:14.791Z,0.30
2023-02-15T02:53:16.455Z,0.26
2023-02-15T02:58:34.496Z,0.27
2023-02-15T03:03:42.480Z,0.29
2023-02-15T03:08:47.745Z,0.26
2023-02-15T03:13:50.258Z,0.25
2023-02-15T03:19:28.787Z,0.19
2023-02-15T03:24:37.518Z,0.15
2023-02-15T03:29:40.330Z,0.07
2023-02-15T03:34:42.631Z,0.04
2023-02-15T03:40:19.267Z,0.05
2023-02-15T03:45:27.257Z,0.08
2023-02-15T03:50:50.008Z,0.01
2023-02-15T03:55:55.068Z,0.02
2023-02-15T04:01:18.822Z,-0.13
2023-02-15T04:06:20.564Z,-0.18
2023-02-15T04:11:22.174Z,-0.27
2023-02-15T04:16:24.757Z,-0.29
2023-02-15T04:21:46.860Z,-0.27
2023-02-15T04:26:49.094Z,-0.44
2023-02-15T04:31:51.594Z,-0.48
2023-02-15T04:36:53.246Z,-0.50
2023-02-15T04:41:54.890Z,-0.45
2023-02-15T04:46:56.557Z,-0.39
2023-02-15T04:51:58.168Z,-0.31
2023-02-15T04:56:59.814Z,-0.28
2023-02-15T05:02:02.836Z,-0.17
2023-02-15T05:07:04.457Z,-0.17
2023-02-15T05:12:06.312Z,-0.14
2023-02-15T05:17:07.960Z,-0.12
2023-02-15T05:22:09.949Z,-0.10
2023-02-15T05:27:31.064Z,-0.07
2023-02-15T05:32:33.058Z,-0.14
2023-02-15T05:37:34.971Z,-0.12
2023-02-15T05:42:36.609Z,-0.15
2023-02-15T05:47:38.335Z,-0.12
2023-02-15T05:52:39.995Z,-0.09
2023-02-15T05:57:41.686Z,-0.08
2023-02-15T06:02:43.437Z,-0.10
2023-02-15T06:07:45.830Z,-0.10
2023-02-15T06:12:47.455Z,-0.18
2023-02-15T06:17:49.091Z,-0.19
2023-02-15T06:22:51.141Z,-0.17
2023-02-15T06:27:52.780Z,-0.16
2023-02-15T06:32:54.434Z,-0.14
2023-02-15T06:37:56.117Z,-0.15
2023-02-15T06:42:57.723Z,-0.13
2023-02-15T06:47:59.305Z,-0.13
2023-02-15T06:53:00.918Z,-0.10
2023-02-15T06:58:02.520Z,-0.09
2023-02-15T07:03:04.156Z,0.02
2023-02-15T07:08:05.851Z,0.09
2023-02-15T07:13:07.456Z,0.12
2023-02-15T07:18:10.059Z,0.18
2023-02-15T07:23:11.665Z,0.22
2023-02-15T07:28:13.271Z,0.36
2023-02-15T07:33:23.837Z,0.44
2023-02-15T07:38:27.141Z,0.59
2023-02-15T07:43:30.276Z,0.73
2023-02-15T07:48:32.450Z,0.85
2023-02-15T07:53:34.363Z,0.94
2023-02-15T07:58:54.874Z,1.06
2023-02-15T08:03:56.806Z,1.19
2023-02-15T08:08:58.496Z,1.34
2023-02-15T08:14:23.051Z,1.53
2023-02-15T08:19:29.921Z,1.72
2023-02-15T08:24:34.113Z,1.89
2023-02-15T08:29:37.282Z,2.07
2023-02-15T08:34:41.782Z,2.21
2023-02-15T08:39:44.409Z,2.38
2023-02-15T08:44:46.016Z,2.53
2023-02-15T08:49:47.701Z,2.67
2023-02-15T08:54:49.282Z,2.81
2023-02-15T08:59:51.957Z,2.93
2023-02-15T09:04:53.760Z,3.03
2023-02-15T09:09:55.541Z,3.20
2023-02-15T09:14:57.143Z,3.30
2023-02-15T09:19:58.793Z,3.37
2023-02-15T09:25:00.633Z,3.51
2023-02-15T09:30:02.313Z,3.60
2023-02-15T09:35:04.073Z,3.70
2023-02-15T09:40:06.364Z,3.76
2023-02-15T09:45:24.797Z,3.92
2023-02-15T09:50:36.760Z,4.01
2023-02-15T09:55:52.536Z,4.16
2023-02-15T10:01:12.524Z,4.25
2023-02-15T10:06:33.817Z,4.41
2023-02-15T10:11:50.092Z,4.68
2023-02-15T10:17:13.987Z,4.77
2023-02-15T10:22:24.894Z,4.89
2023-02-15T10:27:27.455Z,4.92
2023-02-15T10:32:31.896Z,5.00
2023-02-15T10:38:03.463Z,5.13
2023-02-15T10:43:21.635Z,5.30
2023-02-15T10:48:48.043Z,5.48
2023-02-15T10:53:52.736Z,5.49
2023-02-15T10:59:09.471Z,5.54
2023-02-15T11:04:11.017Z,5.66
2023-02-15T11:09:14.314Z,5.75
2023-02-15T11:14:21.741Z,5.78
2023-02-15T11:19:27.557Z,5.80
2023-02-15T11:24:31.246Z,5.88
2023-02-15T11:29:41.002Z,5.94
2023-02-15T11:34:51.693Z,6.04
2023-02-15T11:39:55.702Z,6.09
2023-02-15T11:45:19.522Z,6.14
2023-02-15T11:50:27.168Z,6.11
2023-02-15T11:55:32.197Z,6.15
2023-02-15T12:00:41.237Z,6.29
2023-02-15T12:05:46.063Z,6.30
2023-02-15T12:10:59.286Z,6.39
2023-02-15T12:16:06.950Z,6.42
2023-02-15T12:21:11.109Z,6.52
2023-02-15T12:26:12.803Z,6.57
2023-02-15T12:31:27.482Z,6.49
2023-02-15T12:36:45.509Z,6.57
2023-02-15T12:42:16.854Z,6.68
2023-02-15T12:47:20.337Z,6.60
2023-02-15T12:52:21.893Z,6.57
2023-02-15T12:57:33.747Z,6.61
2023-02-15T13:02:41.541Z,6.62
2023-02-15T13:07:51.632Z,6.70
2023-02-15T13:12:55.301Z,6.64
2023-02-15T13:17:58.926Z,6.56
2023-02-15T13:23:07.352Z,6.53
2023-02-15T13:28:14.926Z,6.56
2023-02-15T13:33:27.755Z,6.42
2023-02-15T13:38:44.478Z,6.43
2023-02-15T13:43:52.385Z,6.33
2023-02-15T13:49:00.082Z,6.30
2023-02-15T13:54:38.616Z,6.35
2023-02-15T13:59:44.339Z,6.29
2023-02-15T14:04:51.823Z,6.25
2023-02-15T14:10:12.199Z,6.26
2023-02-15T14:15:35.333Z,6.27
2023-02-15T14:20:51.111Z,6.36
2023-02-15T14:25:57.037Z,6.29
2023-02-15T14:30:59.402Z,6.22
2023-02-15T14:36:02.925Z,6.21
2023-02-15T14:41:16.535Z,6.16
2023-02-15T14:46:33.868Z,6.07
2023-02-15T14:51:44.694Z,5.96
2023-02-15T14:56:47.349Z,5.86
2023-02-15T15:01:58.898Z,5.73
2023-02-15T15:07:22.633Z,5.66
2023-02-15T15:12:27.291Z,5.61
2023-02-15T15:17:35.010Z,5.56
2023-02-15T15:22:37.158Z,5.46
2023-02-15T15:27:51.176Z,5.30
2023-02-15T15:32:55.964Z,5.12
2023-02-15T15:37:57.564Z,4.96
2023-02-15T15:43:14.405Z,4.77
2023-02-15T15:48:28.575Z,4.62
2023-02-15T15:53:34.581Z,4.41
2023-02-15T15:58:36.288Z,4.22
2023-02-15T16:03:38.104Z,4.04
2023-02-15T16:08:40.895Z,3.88
2023-02-15T16:13:43.662Z,3.73
2023-02-15T16:18:45.566Z,3.60
2023-02-15T16:24:14.901Z,3.43
2023-02-15T16:29:18.413Z,3.29
2023-02-15T16:34:20.167Z,3.14
2023-02-15T16:39:21.873Z,2.98
2023-02-15T16:44:23.588Z,2.81
2023-02-15T16:49:29.464Z,2.71
2023-02-15T16:54:32.392Z,2.54
2023-02-15T16:59:40.800Z,2.43
2023-02-15T17:04:43.271Z,2.33
2023-02-15T17:09:53.377Z,2.20
2023-02-15T17:14:55.811Z,2.09
2023-02-15T17:19:57.541Z,2.03
2023-02-15T17:25:01.746Z,1.92
2023-02-15T17:30:30.959Z,1.83
2023-02-15T17:35:33.423Z,1.73
2023-02-15T17:40:36.976Z,1.66
2023-02-15T17:45:47.626Z,1.60
2023-02-15T17:50:49.585Z,1.53
2023-02-15T17:55:51.672Z,1.53
2023-02-15T18:01:15.150Z,1.48
2023-02-15T18:06:35.477Z,1.42
2023-02-15T18:11:38.028Z,1.36
2023-02-15T18:16:43.257Z,1.31
2023-02-15T18:21:46.374Z,1.26
2023-02-15T18:26:48.466Z,1.26
2023-02-15T18:31:53.426Z,1.19
2023-02-15T18:36:56.568Z,1.15
2023-02-15T18:41:58.266Z,1.15
2023-02-15T18:46:59.913Z,1.10
2023-02-15T18:52:01.959Z,1.07
2023-02-15T18:57:03.924Z,1.07
2023-02-15T19:02:15.455Z,1.03
2023-02-15T19:07:22.822Z,0.97
2023-02-15T19:12:24.487Z,0.94
2023-02-15T19:17:26.179Z,0.89
2023-02-15T19:22:29.855Z,0.89
2023-02-15T19:27:35.763Z,0.85
2023-02-15T19:32:37.391Z,0.82
2023-02-15T19:37:42.542Z,0.83
2023-02-15T19:42:44.356Z,0.80
2023-02-15T19:47:48.154Z,0.74
2023-02-15T19:52:50.339Z,0.77
2023-02-15T19:57:52.732Z,0.77
2023-02-15T20:02:56.728Z,0.75
2023-02-15T20:07:58.622Z,0.69
2023-02-15T20:13:00.551Z,0.65
2023-02-15T20:18:04.100Z,0.62
2023-02-15T20:23:07.464Z,0.62
2023-02-15T20:28:15.560Z,0.63
2023-02-15T20:33:18.521Z,0.59
2023-02-15T20:38:27.036Z,0.57
2023-02-15T20:43:28.756Z,0.54
2023-02-15T20:48:30.578Z,0.51
2023-02-15T20:53:32.501Z,0.54
2023-02-15T20:58:34.657Z,0.49
2023-02-15T21:03:36.333Z,0.44
2023-02-15T21:08:38.019Z,0.46
2023-02-15T21:13:40.137Z,0.50
2023-02-15T21:18:46.489Z,0.48
2023-02-15T21:23:48.586Z,0.48
2023-02-15T21:28:50.497Z,0.43
2023-02-15T21:33:52.460Z,0.41
2023-02-15T21:38:54.162Z,0.45
2023-02-15T21:44:14.449Z,0.42
2023-02-15T21:49:16.198Z,0.44
2023-02-15T21:54:19.597Z,0.41
2023-02-15T21:59:21.255Z,0.35
2023-02-15T22:04:28.641Z,0.38
2023-02-15T22:09:30.977Z,0.43
2023-02-15T22:14:40.704Z,0.46
2023-02-15T22:19:43.117Z,0.37
2023-02-15T22:24:45.449Z,0.39
2023-02-15T22:29:47.114Z,0.32
2023-02-15T22:34:49.305Z,0.33
2023-02-15T22:39:50.941Z,0.33
2023-02-15T22:44:56.394Z,0.27
2023-02-15T22:49:58.114Z,0.27
2023-02-15T22:54:59.724Z,0.28
2023-02-15T23:00:01.601Z,0.26
2023-02-15T23:05:03.261Z,0.27
2023-02-15T23:10:05.391Z,0.27
2023-02-15T23:15:11.018Z,0.26
2023-02-15T23:20:15.639Z,0.25
2023-02-15T23:25:19.572Z,0.21
2023-02-15T23:30:21.359Z,0.20
2023-02-15T23:35:23.056Z,0.20
2023-02-15T23:40:43.392Z,0.17
2023-02-15T23:45:45.117Z,0.12
2023-02-15T23:50:46.858Z,0.10
2023-02-15T23:55:48.557Z,0.15
